Time,TemperatureF,DewpointF,PressureIn,WindDirection,WindDirectionDegrees,WindSpeedMPH,WindSpeedGustMPH,Humidity,HourlyPrecipIn,Conditions,Clouds,dailyrainin,SolarRadiationWatts/m^2,SoftwareType,DateUTC
2013-08-22 00:00:00,68.0,64.0,-100.00,SSW,202,0.0,-999.0,86,-99.99,,,-99.99,0.000000,,2013-08-22 04:00:00,
2013-08-22 00:44:00,68.0,64.0,-100.00,SSW,202,0.0,-999.0,86,-99.99,,,-99.99,0.000000,,2013-08-22 04:44:00,
2013-08-22 00:54:00,68.0,64.0,-100.00,SSW,202,0.0,-999.0,86,-99.99,,,-99.99,0.000000,,2013-08-22 04:54:00,
2013-08-22 01:00:00,69.0,64.0,-100.00,SSW,202,1.0,-999.0,82,-99.99,,,-99.99,0.000000,,2013-08-22 05:00:00,
2013-08-22 01:43:00,69.0,64.0,-100.00,SSW,202,1.0,-999.0,82,-99.99,,,-99.99,0.000000,,2013-08-22 05:43:00,
2013-08-22 01:53:00,69.0,64.0,-100.00,SSW,202,1.0,-999.0,82,-99.99,,,-99.99,0.000000,,2013-08-22 05:53:00,
2013-08-22 02:00:00,70.0,64.0,-100.00,SW,225,2.0,-999.0,79,-99.99,,,-99.99,0.000000,,2013-08-22 06:00:00,
2013-08-22 02:42:00,70.0,64.0,-100.00,SW,225,2.0,-999.0,79,-99.99,,,-99.99,0.000000,,2013-08-22 06:42:00,
2013-08-22 02:52:00,70.0,64.0,-100.00,SW,225,2.0,-999.0,79,-99.99,,,-99.99,0.000000,,2013-08-22 06:52:00,
2013-08-22 03:00:00,71.0,64.0,-100.00,SW,225,2.0,-999.0,77,-99.99,,,-99.99,0.000000,,2013-08-22 07:00:00,
2013-08-22 03:42:00,71.0,64.0,-100.00,SW,225,2.0,-999.0,77,-99.99,,,-99.99,0.000000,,2013-08-22 07:42:00,
2013-08-22 03:53:00,71.0,64.0,-100.00,SW,225,2.0,-999.0,77,-99.99,,,-99.99,0.000000,,2013-08-22 07:53:00,
2013-08-22 04:00:00,71.0,63.0,-100.00,SW,225,2.0,-999.0,77,-99.99,,,-99.99,0.000000,,2013-08-22 08:00:00,
2013-08-22 04:43:00,71.0,63.0,-100.00,SW,225,2.0,-999.0,77,-99.99,,,-99.99,0.000000,,2013-08-22 08:43:00,
2013-08-22 04:53:00,71.0,63.0,-100.00,SW,225,2.0,-999.0,77,-99.99,,,-99.99,0.000000,,2013-08-22 08:53:00,
2013-08-22 05:00:00,70.0,64.0,-100.00,SSW,202,1.0,-999.0,80,-99.99,,,-99.99,0.000000,,2013-08-22 09:00:00,
2013-08-22 05:43:00,70.0,64.0,-100.00,SSW,202,1.0,-999.0,80,-99.99,,,-99.99,0.000000,,2013-08-22 09:43:00,
2013-08-22 05:54:00,70.0,64.0,-100.00,SSW,202,1.0,-999.0,80,-99.99,,,-99.99,0.000000,,2013-08-22 09:54:00,
2013-08-22 06:00:00,69.0,64.0,-100.00,West,270,2.0,-999.0,82,-99.99,,,-99.99,0.000000,,2013-08-22 10:00:00,
2013-08-22 06:42:00,69.0,64.0,-100.00,West,270,2.0,-999.0,82,-99.99,,,-99.99,0.000000,,2013-08-22 10:42:00,
2013-08-22 08:00:00,68.0,63.0,-100.00,NW,315,1.0,-999.0,84,-99.99,,,-99.99,38.279999,,2013-08-22 12:00:00,
2013-08-22 08:42:00,68.0,63.0,-100.00,NW,315,1.0,-999.0,84,-99.99,,,-99.99,38.279999,,2013-08-22 12:42:00,
2013-08-22 08:52:00,68.0,63.0,-100.00,NW,315,1.0,-999.0,84,-99.99,,,-99.99,38.279999,,2013-08-22 12:52:00,
2013-08-22 09:00:00,69.0,62.0,-100.00,WNW,292,2.0,-999.0,78,-99.99,,,-99.99,148.479996,,2013-08-22 13:00:00,
2013-08-22 09:42:00,69.0,62.0,-100.00,WNW,292,2.0,-999.0,78,-99.99,,,-99.99,148.479996,,2013-08-22 13:42:00,
2013-08-22 09:52:00,69.0,62.0,-100.00,WNW,292,2.0,-999.0,78,-99.99,,,-99.99,148.479996,,2013-08-22 13:52:00,
2013-08-22 10:00:00,72.0,62.0,-100.00,WNW,292,2.0,-999.0,71,-99.99,,,-99.99,348.000000,,2013-08-22 14:00:00,
2013-08-22 10:42:00,72.0,62.0,-100.00,WNW,292,2.0,-999.0,71,-99.99,,,-99.99,348.000000,,2013-08-22 14:42:00,
2013-08-22 10:52:00,72.0,62.0,-100.00,WNW,292,2.0,-999.0,71,-99.99,,,-99.99,348.000000,,2013-08-22 14:52:00,
2013-08-22 11:00:00,74.0,62.0,-100.00,West,270,3.0,-999.0,64,-99.99,,,-99.99,505.760010,,2013-08-22 15:00:00,
2013-08-22 11:44:00,74.0,62.0,-100.00,West,270,3.0,-999.0,64,-99.99,,,-99.99,505.760010,,2013-08-22 15:44:00,
2013-08-22 11:55:00,74.0,62.0,-100.00,West,270,3.0,-999.0,64,-99.99,,,-99.99,505.760010,,2013-08-22 15:55:00,
2013-08-22 12:00:00,76.0,62.0,-100.00,West,270,4.0,-999.0,60,-99.99,,,-99.99,593.919983,,2013-08-22 16:00:00,
2013-08-22 12:44:00,76.0,62.0,-100.00,West,270,4.0,-999.0,60,-99.99,,,-99.99,593.919983,,2013-08-22 16:44:00,
2013-08-22 12:54:00,76.0,62.0,-100.00,West,270,4.0,-999.0,60,-99.99,,,-99.99,593.919983,,2013-08-22 16:54:00,
2013-08-22 13:00:00,77.0,62.0,-100.00,West,270,5.0,-999.0,61,-99.99,,,-99.99,557.960022,,2013-08-22 17:00:00,
2013-08-22 13:43:00,77.0,62.0,-100.00,West,270,5.0,-999.0,61,-99.99,,,-99.99,557.960022,,2013-08-22 17:43:00,
2013-08-22 13:53:00,77.0,62.0,-100.00,West,270,5.0,-999.0,61,-99.99,,,-99.99,557.960022,,2013-08-22 17:53:00,
2013-08-22 14:00:00,78.0,62.0,-100.00,WNW,292,4.0,-999.0,58,-99.99,,,-99.99,512.719971,,2013-08-22 18:00:00,
2013-08-22 14:43:00,78.0,62.0,-100.00,WNW,292,4.0,-999.0,58,-99.99,,,-99.99,512.719971,,2013-08-22 18:43:00,
2013-08-22 14:52:00,78.0,62.0,-100.00,WNW,292,4.0,-999.0,58,-99.99,,,-99.99,512.719971,,2013-08-22 18:52:00,
2013-08-22 15:00:00,78.0,62.0,-100.00,WNW,292,3.0,-999.0,58,-99.99,,,-99.99,473.279999,,2013-08-22 19:00:00,
2013-08-22 15:42:00,78.0,62.0,-100.00,WNW,292,3.0,-999.0,58,-99.99,,,-99.99,473.279999,,2013-08-22 19:42:00,
2013-08-22 15:53:00,78.0,62.0,-100.00,WNW,292,3.0,-999.0,58,-99.99,,,-99.99,473.279999,,2013-08-22 19:53:00,
2013-08-22 16:00:00,79.0,63.0,-100.00,WNW,292,4.0,-999.0,57,-99.99,,,-99.99,490.679993,,2013-08-22 20:00:00,
2013-08-22 16:42:00,79.0,63.0,-100.00,WNW,292,4.0,-999.0,57,-99.99,,,-99.99,490.679993,,2013-08-22 20:42:00,
2013-08-22 16:52:00,79.0,63.0,-100.00,WNW,292,4.0,-999.0,57,-99.99,,,-99.99,490.679993,,2013-08-22 20:52:00,
2013-08-22 17:00:00,79.0,63.0,-100.00,WNW,292,3.0,-999.0,58,-99.99,,,-99.99,357.279999,,2013-08-22 21:00:00,
2013-08-22 17:44:00,79.0,63.0,-100.00,WNW,292,3.0,-999.0,58,-99.99,,,-99.99,357.279999,,2013-08-22 21:44:00,
2013-08-22 17:54:00,79.0,63.0,-100.00,WNW,292,3.0,-999.0,58,-99.99,,,-99.99,357.279999,,2013-08-22 21:54:00,
2013-08-22 18:00:00,77.0,63.0,-100.00,WNW,292,1.0,-999.0,63,-99.99,,,-99.99,111.360001,,2013-08-22 22:00:00,
2013-08-22 18:42:00,77.0,63.0,-100.00,WNW,292,1.0,-999.0,63,-99.99,,,-99.99,111.360001,,2013-08-22 22:42:00,
2013-08-22 18:53:00,77.0,63.0,-100.00,WNW,292,1.0,-999.0,63,-99.99,,,-99.99,111.360001,,2013-08-22 22:53:00,
2013-08-22 19:00:00,76.0,64.0,-100.00,West,270,1.0,-999.0,67,-99.99,,,-99.99,99.760002,,2013-08-22 23:00:00,
2013-08-22 19:42:00,76.0,64.0,-100.00,West,270,1.0,-999.0,67,-99.99,,,-99.99,99.760002,,2013-08-22 23:42:00,
2013-08-22 19:53:00,76.0,64.0,-100.00,West,270,1.0,-999.0,67,-99.99,,,-99.99,99.760002,,2013-08-22 23:53:00,
2013-08-22 20:00:00,74.0,64.0,-100.00,WNW,292,1.0,-999.0,70,-99.99,,,-99.99,26.680000,,2013-08-23 00:00:00,
2013-08-22 20:42:00,74.0,64.0,-100.00,WNW,292,1.0,-999.0,70,-99.99,,,-99.99,26.680000,,2013-08-23 00:42:00,
2013-08-22 20:52:00,74.0,64.0,-100.00,WNW,292,1.0,-999.0,70,-99.99,,,-99.99,26.680000,,2013-08-23 00:52:00,
2013-08-22 21:00:00,73.0,64.0,-100.00,West,270,0.0,-999.0,75,-99.99,,,-99.99,3.480000,,2013-08-23 01:00:00,
2013-08-22 21:42:00,73.0,64.0,-100.00,West,270,0.0,-999.0,75,-99.99,,,-99.99,3.480000,,2013-08-23 01:42:00,
2013-08-22 21:52:00,73.0,64.0,-100.00,West,270,0.0,-999.0,75,-99.99,,,-99.99,3.480000,,2013-08-23 01:52:00,
2013-08-22 22:00:00,70.0,64.0,-100.00,WNW,292,0.0,-999.0,81,-99.99,,,-99.99,0.000000,,2013-08-23 02:00:00,
2013-08-22 22:43:00,70.0,64.0,-100.00,WNW,292,0.0,-999.0,81,-99.99,,,-99.99,0.000000,,2013-08-23 02:43:00,
2013-08-22 22:52:00,70.0,64.0,-100.00,WNW,292,0.0,-999.0,81,-99.99,,,-99.99,0.000000,,2013-08-23 02:52:00,
2013-08-22 23:00:00,69.0,64.0,-100.00,SW,225,0.0,-999.0,85,-99.99,,,-99.99,0.000000,,2013-08-23 03:00:00,
2013-08-22 23:44:00,69.0,64.0,-100.00,SW,225,0.0,-999.0,85,-99.99,,,-99.99,0.000000,,2013-08-23 03:44:00,
2013-08-22 23:55:00,69.0,64.0,-100.00,SW,225,0.0,-999.0,85,-99.99,,,-99.99,0.000000,,2013-08-23 03:55:00,